Time;durP1;ratioP1;P1;durP2;ratioP2;P2;SDS_P1;SDS_P2;PMS_P1;PMS_P2;Temp;Humidity;BMP_temperature;BMP_pressure;BME280_temperature;BME280_humidity;BME280_pressure;Samples;Min_cycle;Max_cycle;Signal;HPM_P1;HPM_P2
2023/12/07 00:01:04;;;;;;;2.40;2.22;;;15.40;64.60;;;;;;4963451;28;20059;-80
2023/12/07 00:03:30;;;;;;;2.55;2.45;;;15.40;64.60;;;;;;4963061;28;20472;-80
2023/12/07 00:05:55;;;;;;;2.60;2.50;;;15.30;64.60;;;;;;4963849;28;20070;-80
2023/12/07 00:08:21;;;;;;;2.28;2.15;;;15.40;64.60;;;;;;4947608;28;20046;-80
2023/12/07 00:10:47;;;;;;;2.72;2.53;;;15.40;64.60;;;;;;4962364;28;20521;-81
2023/12/07 00:13:12;;;;;;;2.30;2.20;;;15.40;64.60;;;;;;4963813;28;20425;-80
2023/12/07 00:15:38;;;;;;;2.67;2.47;;;15.40;64.60;;;;;;4965504;28;20046;-80
2023/12/07 00:18:03;;;;;;;2.83;2.63;;;15.40;64.60;;;;;;4962785;28;20043;-93
2023/12/07 00:20:29;;;;;;;2.72;2.53;;;15.40;64.60;;;;;;4963940;28;20051;-93
2023/12/07 00:22:58;;;;;;;2.22;2.13;;;15.40;64.70;;;;;;4951313;28;20062;-94
2023/12/07 00:25:23;;;;;;;2.53;2.38;;;15.40;64.60;;;;;;4975084;28;20472;-93
2023/12/07 00:27:49;;;;;;;3.10;2.80;;;15.40;64.50;;;;;;4969934;28;20138;-93
2023/12/07 00:30:14;;;;;;;2.40;2.20;;;15.40;64.60;;;;;;4975973;28;20497;-92
2023/12/07 00:32:43;;;;;;;2.50;2.22;;;15.30;64.40;;;;;;4968870;28;20125;-92
2023/12/07 00:35:09;;;;;;;2.60;2.40;;;15.30;65.20;;;;;;4959111;28;20054;-92
2023/12/07 00:37:35;;;;;;;2.80;2.60;;;15.30;64.40;;;;;;4973058;28;20043;-92
2023/12/07 00:40:01;;;;;;;2.20;2.10;;;15.30;65.40;;;;;;4974863;28;20042;-92
2023/12/07 00:42:27;;;;;;;2.38;2.28;;;15.30;64.50;;;;;;4970838;28;20043;-92
2023/12/07 00:44:53;;;;;;;2.75;2.53;;;15.30;64.40;;;;;;4964694;28;20090;-92
2023/12/07 00:47:18;;;;;;;2.13;2.03;;;15.30;64.40;;;;;;4975053;28;20051;-92
2023/12/07 00:49:44;;;;;;;2.30;2.20;;;15.30;64.60;;;;;;4969113;28;20065;-91
2023/12/07 00:52:09;;;;;;;2.42;2.33;;;15.30;64.40;;;;;;4975832;28;20046;-92
2023/12/07 00:54:35;;;;;;;2.55;2.33;;;15.30;65.30;;;;;;4975897;28;20043;-92
2023/12/07 00:57:00;;;;;;;2.08;1.98;;;15.30;64.40;;;;;;4973781;28;20043;-91
2023/12/07 00:59:26;;;;;;;2.38;2.28;;;15.30;64.40;;;;;;4970880;28;20543;-89
2023/12/07 01:01:51;;;;;;;2.30;2.17;;;15.30;64.50;;;;;;4953737;28;20043;-96
2023/12/07 01:04:17;;;;;;;2.30;2.20;;;15.30;64.40;;;;;;4970805;28;20065;-93
2023/12/07 01:06:43;;;;;;;2.50;2.40;;;15.30;64.50;;;;;;4971316;28;20043;-92
2023/12/07 01:09:13;;;;;;;2.17;2.08;;;15.30;64.40;;;;;;4973954;28;20629;-94
2023/12/07 01:11:39;;;;;;;2.40;2.20;;;15.30;64.50;;;;;;4971860;28;20122;-93
2023/12/07 01:14:05;;;;;;;2.08;1.98;;;15.30;64.40;;;;;;4958438;28;20047;-93
2023/12/07 01:16:31;;;;;;;3.30;2.17;;;15.30;65.10;;;;;;4974177;28;20172;-94
2023/12/07 01:18:57;;;;;;;2.10;2.00;;;15.30;64.50;;;;;;4975158;28;20097;-93
2023/12/07 01:21:23;;;;;;;2.00;1.90;;;15.20;64.40;;;;;;4972413;28;20129;-94
2023/12/07 01:23:49;;;;;;;2.40;2.25;;;15.30;64.60;;;;;;4970033;28;20525;-85
2023/12/07 01:26:14;;;;;;;2.30;2.10;;;15.20;64.70;;;;;;4973660;28;20057;-91
2023/12/07 01:28:40;;;;;;;1.85;1.75;;;15.30;64.60;;;;;;4988041;28;20058;-91
2023/12/07 01:31:05;;;;;;;2.65;2.03;;;15.30;64.40;;;;;;4938268;28;20074;-91
2023/12/07 01:33:31;;;;;;;2.05;1.95;;;15.20;64.40;;;;;;4971651;28;20042;-91
2023/12/07 01:35:56;;;;;;;2.08;1.98;;;15.30;64.50;;;;;;4970911;28;20093;-91
2023/12/07 01:38:22;;;;;;;2.05;1.95;;;15.30;64.40;;;;;;4974160;28;20069;-89
2023/12/07 01:40:48;;;;;;;1.95;1.85;;;15.30;64.40;;;;;;4971214;28;20047;-91
2023/12/07 01:43:14;;;;;;;1.70;1.60;;;15.20;64.40;;;;;;4967383;28;20057;-91
2023/12/07 01:45:39;;;;;;;2.20;1.80;;;15.30;64.40;;;;;;4972759;28;20039;-90
2023/12/07 01:48:06;;;;;;;2.03;1.92;;;15.20;64.40;;;;;;4963417;28;20138;-93
2023/12/07 01:50:31;;;;;;;1.80;1.70;;;15.20;64.50;;;;;;4950819;28;20058;-93
2023/12/07 01:53:01;;;;;;;2.03;1.92;;;15.20;64.40;;;;;;4970044;28;20190;-90
2023/12/07 01:55:26;;;;;;;1.67;1.58;;;15.20;64.40;;;;;;4953998;28;20050;-90
2023/12/07 01:57:52;;;;;;;1.73;1.63;;;15.20;64.60;;;;;;4971392;28;20102;-90
2023/12/07 02:00:18;;;;;;;1.88;1.77;;;15.20;64.40;;;;;;4973621;28;20524;-95
2023/12/07 02:02:44;;;;;;;1.80;1.70;;;15.30;64.50;;;;;;4972867;28;20058;-95
2023/12/07 02:05:10;;;;;;;1.90;1.77;;;15.20;64.40;;;;;;4968210;28;20071;-93
2023/12/07 02:07:35;;;;;;;1.65;1.55;;;15.20;64.40;;;;;;4954957;28;20081;-92
2023/12/07 02:10:01;;;;;;;2.15;2.05;;;15.20;64.40;;;;;;4968706;28;20046;-92
2023/12/07 02:12:29;;;;;;;2.10;2.00;;;15.20;64.40;;;;;;4969411;28;20043;-90
2023/12/07 02:14:55;;;;;;;1.80;1.70;;;15.20;64.40;;;;;;4968749;28;20043;-90
2023/12/07 02:17:32;;;;;;;1.95;1.85;;;15.20;64.70;;;;;;4970519;28;20053;-89
2023/12/07 02:20:15;;;;;;;1.92;1.83;;;15.20;64.40;;;;;;4972417;28;20039;-94
2023/12/07 02:22:52;;;;;;;1.67;1.58;;;15.20;64.50;;;;;;4968095;28;20054;-94
2023/12/07 02:25:18;;;;;;;2.00;1.90;;;15.20;64.40;;;;;;4954537;28;20054;-92
2023/12/07 02:27:47;;;;;;;1.33;1.33;;;15.20;64.40;;;;;;4967432;28;20047;-91
2023/12/07 02:30:13;;;;;;;1.88;1.77;;;15.20;64.40;;;;;;4970025;28;20082;-91
2023/12/07 02:32:39;;;;;;;1.80;1.70;;;15.20;64.30;;;;;;4971856;28;20125;-92
2023/12/07 02:35:05;;;;;;;2.03;1.77;;;15.20;64.30;;;;;;4969619;28;20053;-91
2023/12/07 02:37:37;;;;;;;1.90;1.80;;;15.20;64.50;;;;;;4970649;28;21758;-92
2023/12/07 02:40:04;;;;;;;1.60;1.50;;;15.20;64.50;;;;;;4967683;28;20073;-92
2023/12/07 02:42:29;;;;;;;1.60;1.50;;;15.20;64.40;;;;;;4982879;28;20053;-92
2023/12/07 02:44:55;;;;;;;1.60;1.50;;;15.20;64.50;;;;;;4969246;28;20501;-89
2023/12/07 02:47:21;;;;;;;1.50;1.40;;;15.20;64.60;;;;;;4952632;28;20077;-89
2023/12/07 02:49:46;;;;;;;1.60;1.50;;;15.20;64.50;;;;;;4968404;28;20516;-90
2023/12/07 02:52:12;;;;;;;1.75;1.65;;;15.20;64.50;;;;;;4969968;28;20526;-96
2023/12/07 02:54:37;;;;;;;1.67;1.58;;;15.20;64.50;;;;;;4973930;28;20043;-96
2023/12/07 02:57:03;;;;;;;1.98;1.88;;;15.20;64.50;;;;;;4967098;28;20045;-89
2023/12/07 02:59:28;;;;;;;2.45;1.50;;;15.20;64.60;;;;;;4968781;28;20519;-88
2023/12/07 03:01:54;;;;;;;1.70;1.60;;;15.20;64.60;;;;;;4965735;28;20134;-86
2023/12/07 03:04:19;;;;;;;1.38;1.38;;;15.20;64.60;;;;;;4950889;28;20050;-88
2023/12/07 03:06:45;;;;;;;1.30;1.20;;;15.20;65.30;;;;;;4968116;28;20042;-88
2023/12/07 03:09:11;;;;;;;1.40;1.30;;;15.20;64.70;;;;;;4966266;28;20350;-88
2023/12/07 03:11:36;;;;;;;1.67;1.58;;;15.20;64.60;;;;;;4950012;28;20101;-88
2023/12/07 03:14:02;;;;;;;1.23;1.23;;;15.20;65.50;;;;;;4966908;28;20042;-95
2023/12/07 03:16:27;;;;;;;1.20;1.20;;;15.20;64.60;;;;;;4972995;28;20591;-89
2023/12/07 03:18:53;;;;;;;1.23;1.13;;;15.20;64.60;;;;;;4968644;28;20046;-90
2023/12/07 03:21:18;;;;;;;1.42;1.33;;;15.20;64.60;;;;;;4968641;28;20054;-91
2023/12/07 03:23:44;;;;;;;1.20;1.17;;;15.10;64.70;;;;;;4970473;28;20116;-92
2023/12/07 03:26:09;;;;;;;1.55;1.45;;;15.10;64.60;;;;;;4971688;28;20121;-91
2023/12/07 03:28:35;;;;;;;1.30;1.30;;;15.10;64.60;;;;;;4966106;28;20043;-91
2023/12/07 03:31:01;;;;;;;1.67;1.58;;;15.10;64.60;;;;;;4970151;28;20397;-91
2023/12/07 03:33:26;;;;;;;1.45;1.35;;;15.10;64.60;;;;;;4970864;28;20046;-90
2023/12/07 03:35:52;;;;;;;1.55;1.33;;;15.10;64.60;;;;;;4970498;28;20558;-91
2023/12/07 03:38:17;;;;;;;1.55;1.45;;;15.20;64.70;;;;;;4972013;28;20098;-91
2023/12/07 03:40:47;;;;;;;1.45;1.35;;;15.10;65.60;;;;;;4969565;28;20039;-91
2023/12/07 03:43:13;;;;;;;1.20;1.20;;;15.20;64.60;;;;;;4971043;28;20113;-92
2023/12/07 03:45:38;;;;;;;1.13;1.10;;;15.10;64.60;;;;;;4963082;28;20130;-92
2023/12/07 03:48:04;;;;;;;1.38;1.27;;;15.10;64.50;;;;;;4968782;28;20030;-92
2023/12/07 03:50:30;;;;;;;1.40;1.30;;;15.10;64.40;;;;;;4967622;28;20046;-92
2023/12/07 03:52:55;;;;;;;1.23;1.20;;;15.10;64.60;;;;;;4971651;28;20043;-92
2023/12/07 03:55:21;;;;;;;1.40;1.30;;;15.10;64.50;;;;;;4972051;28;20505;-92
2023/12/07 03:57:46;;;;;;;1.27;1.20;;;15.10;64.60;;;;;;4963044;28;20409;-92
2023/12/07 04:00:12;;;;;;;1.10;1.10;;;15.10;64.60;;;;;;4971468;28;20217;-92
2023/12/07 04:02:38;;;;;;;1.27;1.10;;;15.10;64.50;;;;;;4971971;28;20505;-92
2023/12/07 04:05:04;;;;;;;0.90;0.90;;;15.10;64.60;;;;;;4972584;28;20035;-91
2023/12/07 04:07:30;;;;;;;1.42;1.33;;;15.10;64.60;;;;;;4967287;28;20047;-93
2023/12/07 04:09:57;;;;;;;1.25;1.15;;;15.10;64.70;;;;;;4970411;28;20049;-93
2023/12/07 04:12:23;;;;;;;1.40;1.30;;;15.10;64.60;;;;;;4966095;28;20054;-93
2023/12/07 04:14:49;;;;;;;1.15;1.10;;;15.10;64.70;;;;;;4971153;28;20036;-93
2023/12/07 04:17:15;;;;;;;1.00;1.00;;;15.10;64.60;;;;;;4966923;28;20051;-90
2023/12/07 04:19:40;;;;;;;1.35;1.30;;;15.10;64.60;;;;;;4970075;28;20624;-90
2023/12/07 04:22:06;;;;;;;0.90;0.90;;;15.10;64.70;;;;;;4967888;28;20051;-89
2023/12/07 04:24:32;;;;;;;1.10;1.10;;;15.10;65.40;;;;;;4964422;28;20523;-88
2023/12/07 04:26:58;;;;;;;1.30;1.30;;;15.10;64.60;;;;;;4965926;28;20043;-88
2023/12/07 04:29:23;;;;;;;1.08;0.98;;;15.10;64.60;;;;;;4965274;28;20115;-88
2023/12/07 04:31:49;;;;;;;0.90;0.90;;;15.10;64.60;;;;;;4966380;28;20054;-87
2023/12/07 04:34:14;;;;;;;1.30;1.20;;;15.10;64.60;;;;;;4965223;28;20456;-88
2023/12/07 04:36:40;;;;;;;1.40;1.30;;;15.10;64.80;;;;;;4965190;28;20042;-90
2023/12/07 04:39:05;;;;;;;0.98;0.98;;;15.10;64.70;;;;;;4967242;28;20147;-89
2023/12/07 04:41:31;;;;;;;1.08;1.08;;;15.10;64.70;;;;;;4964719;28;20054;-93
2023/12/07 04:43:57;;;;;;;2.38;1.70;;;15.10;64.90;;;;;;4966515;28;20046;-93
2023/12/07 04:46:23;;;;;;;0.93;0.93;;;15.10;64.70;;;;;;4967998;28;20117;-93
2023/12/07 04:48:48;;;;;;;0.80;0.80;;;15.10;65.70;;;;;;4971277;28;20042;-93
2023/12/07 04:51:14;;;;;;;0.82;0.82;;;15.10;64.60;;;;;;4961302;28;20043;-93
2023/12/07 04:53:39;;;;;;;0.93;0.93;;;15.10;64.70;;;;;;4970834;28;20062;-94
2023/12/07 04:56:06;;;;;;;0.90;0.90;;;15.10;64.60;;;;;;4952819;28;20074;-89
2023/12/07 04:58:32;;;;;;;0.88;0.88;;;15.10;64.70;;;;;;4966016;28;20182;-89
2023/12/07 05:00:57;;;;;;;0.93;0.93;;;15.10;64.70;;;;;;4960852;28;20488;-88
2023/12/07 05:03:23;;;;;;;0.93;0.93;;;15.10;64.70;;;;;;4964265;28;20041;-88
2023/12/07 05:05:49;;;;;;;0.90;0.90;;;15.10;64.70;;;;;;4971636;28;20102;-89
2023/12/07 05:08:15;;;;;;;0.80;0.80;;;15.10;64.60;;;;;;4964456;28;20050;-92
2023/12/07 05:10:41;;;;;;;0.90;0.90;;;15.10;65.00;;;;;;4969039;28;20046;-90
2023/12/07 05:13:06;;;;;;;0.90;0.90;;;15.10;64.90;;;;;;4972192;28;20074;-89
2023/12/07 05:15:32;;;;;;;1.10;0.90;;;15.10;64.70;;;;;;4969947;28;20496;-93
2023/12/07 05:17:57;;;;;;;0.93;0.93;;;15.10;64.70;;;;;;4972378;28;20039;-94
2023/12/07 05:20:24;;;;;;;0.80;0.80;;;15.10;64.70;;;;;;4974698;28;20078;-94
2023/12/07 05:22:49;;;;;;;0.95;0.82;;;15.10;64.70;;;;;;4975731;28;20043;-94
2023/12/07 05:25:15;;;;;;;0.90;0.90;;;15.10;64.60;;;;;;4973042;28;21866;-91
2023/12/07 05:27:41;;;;;;;0.80;0.80;;;15.10;64.70;;;;;;4972872;28;20046;-90
2023/12/07 05:30:07;;;;;;;0.70;0.70;;;15.10;64.80;;;;;;4970439;28;20050;-93
2023/12/07 05:32:33;;;;;;;0.98;0.98;;;15.10;64.70;;;;;;4986362;28;20070;-90
2023/12/07 05:34:58;;;;;;;1.13;1.02;;;15.10;64.70;;;;;;4616735;28;10000571;-92
2023/12/07 05:37:24;;;;;;;0.90;0.90;;;15.10;65.30;;;;;;4951990;28;20057;-90
2023/12/07 05:39:50;;;;;;;0.80;0.80;;;15.10;65.10;;;;;;4967405;28;20043;-91
2023/12/07 05:42:15;;;;;;;1.02;1.02;;;15.10;64.80;;;;;;4968458;28;20061;-90
2023/12/07 05:44:41;;;;;;;2.15;1.13;;;15.20;64.90;;;;;;4970953;28;20516;-90
2023/12/07 05:47:07;;;;;;;0.85;0.85;;;15.20;65.00;;;;;;4971268;28;20394;-87
2023/12/07 05:49:33;;;;;;;0.70;0.70;;;15.10;65.00;;;;;;4622493;28;10000041;-91
2023/12/07 05:51:59;;;;;;;2.35;0.77;;;15.10;65.20;;;;;;4965806;28;20587;-92
2023/12/07 05:54:24;;;;;;;0.68;0.68;;;15.10;65.20;;;;;;4944193;28;20125;-93
2023/12/07 05:56:50;;;;;;;1.25;0.93;;;15.10;65.00;;;;;;4970259;28;20157;-92
2023/12/07 05:59:15;;;;;;;0.80;0.80;;;15.10;65.00;;;;;;4948894;28;20110;-91
2023/12/07 06:01:41;;;;;;;1.10;1.05;;;15.10;65.00;;;;;;4965079;28;20058;-90
2023/12/07 06:04:10;;;;;;;0.82;0.82;;;15.10;65.00;;;;;;4965412;28;20053;-90
2023/12/07 06:06:36;;;;;;;0.70;0.70;;;15.10;65.90;;;;;;4967234;28;20054;-91
2023/12/07 06:09:01;;;;;;;0.70;0.70;;;15.10;65.10;;;;;;4963807;28;20051;-91
2023/12/07 06:11:27;;;;;;;0.90;0.70;;;15.10;65.00;;;;;;4968176;28;20039;-91
2023/12/07 06:13:52;;;;;;;1.45;0.68;;;15.10;65.00;;;;;;4958926;28;20525;-91
2023/12/07 06:16:18;;;;;;;0.80;0.80;;;15.10;64.90;;;;;;4962990;28;20533;-91
2023/12/07 06:18:44;;;;;;;0.70;0.70;;;15.10;64.80;;;;;;4958174;28;20039;-92
2023/12/07 06:21:10;;;;;;;1.60;0.70;;;15.10;64.70;;;;;;4943242;28;20050;-92
2023/12/07 06:23:35;;;;;;;0.70;0.70;;;15.10;64.60;;;;;;4960174;28;20348;-93
2023/12/07 06:26:01;;;;;;;0.70;0.70;;;15.10;65.30;;;;;;4962648;28;20618;-92
2023/12/07 06:28:27;;;;;;;0.45;0.45;;;15.10;64.60;;;;;;4962405;28;23281;-92
2023/12/07 06:30:53;;;;;;;0.60;0.60;;;15.10;64.50;;;;;;4965064;28;20049;-89
2023/12/07 06:33:20;;;;;;;0.77;0.60;;;15.10;64.60;;;;;;4963929;28;20063;-88
2023/12/07 06:35:46;;;;;;;1.42;0.68;;;15.20;64.60;;;;;;4963831;28;20042;-90
2023/12/07 06:38:12;;;;;;;1.25;0.70;;;15.20;64.60;;;;;;4947139;28;20051;-89
2023/12/07 06:40:37;;;;;;;0.70;0.70;;;15.20;64.50;;;;;;4963506;28;20043;-89
2023/12/07 06:43:03;;;;;;;0.70;0.70;;;15.10;64.50;;;;;;4964892;28;20592;-88
2023/12/07 06:45:28;;;;;;;1.27;0.70;;;15.10;64.50;;;;;;4966180;28;20161;-88
2023/12/07 06:47:54;;;;;;;1.73;0.80;;;15.20;64.60;;;;;;4944019;28;20050;-89
2023/12/07 06:50:20;;;;;;;0.63;0.63;;;15.10;64.50;;;;;;4962856;28;20043;-89
2023/12/07 06:52:46;;;;;;;0.70;0.70;;;15.10;64.60;;;;;;4965673;28;20540;-89
2023/12/07 06:55:12;;;;;;;0.88;0.80;;;15.10;64.60;;;;;;4962976;28;20027;-89
2023/12/07 06:57:38;;;;;;;0.70;0.70;;;15.10;64.60;;;;;;4943374;28;20393;-89
2023/12/07 07:00:05;;;;;;;1.35;0.70;;;15.10;64.70;;;;;;4948940;28;20553;-90
2023/12/07 07:02:31;;;;;;;0.60;0.60;;;15.20;64.60;;;;;;4964439;28;20069;-87
2023/12/07 07:04:57;;;;;;;0.70;0.70;;;15.10;64.60;;;;;;4966318;28;20482;-89
2023/12/07 07:07:22;;;;;;;1.45;0.68;;;15.10;64.50;;;;;;4964313;28;20051;-88
2023/12/07 07:09:48;;;;;;;0.70;0.70;;;15.10;64.80;;;;;;4967692;28;20069;-91
2023/12/07 07:12:13;;;;;;;0.90;0.90;;;15.20;64.90;;;;;;4969871;28;20544;-91
2023/12/07 07:14:40;;;;;;;0.70;0.60;;;15.10;65.30;;;;;;4968827;28;20641;-91
2023/12/07 07:17:05;;;;;;;0.60;0.60;;;15.10;65.10;;;;;;4970825;28;20039;-91
2023/12/07 07:19:31;;;;;;;0.60;0.60;;;15.10;65.30;;;;;;4968704;28;20105;-91
2023/12/07 07:21:57;;;;;;;0.75;0.75;;;15.10;65.00;;;;;;4970529;28;20049;-92
2023/12/07 07:24:22;;;;;;;0.70;0.70;;;15.10;65.10;;;;;;4966637;28;20063;-91
2023/12/07 07:26:48;;;;;;;1.15;0.50;;;15.10;65.00;;;;;;4970121;28;20066;-92
2023/12/07 07:29:13;;;;;;;0.70;0.70;;;15.10;65.30;;;;;;4965561;28;20053;-92
2023/12/07 07:31:39;;;;;;;0.70;0.70;;;15.10;65.00;;;;;;4970441;28;20057;-91
2023/12/07 07:34:05;;;;;;;0.60;0.60;;;15.10;65.10;;;;;;4966695;28;20046;-91
2023/12/07 07:36:31;;;;;;;0.82;0.65;;;15.10;65.00;;;;;;4969201;28;20093;-91
2023/12/07 07:38:56;;;;;;;0.75;0.50;;;15.10;65.00;;;;;;4958341;28;20105;-92
2023/12/07 07:41:23;;;;;;;0.60;0.52;;;15.10;65.70;;;;;;4970827;28;20062;-92
2023/12/07 07:43:48;;;;;;;0.75;0.75;;;15.10;65.00;;;;;;4970128;28;20065;-92
2023/12/07 07:46:14;;;;;;;0.75;0.70;;;15.10;65.00;;;;;;4966694;28;20051;-91
2023/12/07 07:48:40;;;;;;;0.57;0.52;;;15.10;65.00;;;;;;4967610;28;20054;-91
2023/12/07 07:51:06;;;;;;;0.75;0.75;;;15.10;64.90;;;;;;4969161;28;20045;-91
2023/12/07 07:53:31;;;;;;;0.95;0.57;;;15.10;64.90;;;;;;4970739;28;20128;-93
2023/12/07 07:55:57;;;;;;;1.63;0.60;;;15.10;65.00;;;;;;4969605;28;20105;-93
2023/12/07 07:58:22;;;;;;;1.08;0.70;;;15.00;65.10;;;;;;4968831;28;20113;-93
2023/12/07 08:00:48;;;;;;;0.65;0.63;;;15.10;65.00;;;;;;4968447;28;20054;-93
2023/12/07 08:03:13;;;;;;;0.60;0.40;;;15.10;65.00;;;;;;4968649;28;20054;-88
2023/12/07 08:05:39;;;;;;;0.43;0.43;;;15.10;65.00;;;;;;4970280;28;20054;-93
2023/12/07 08:08:04;;;;;;;0.50;0.50;;;15.10;65.00;;;;;;4970684;28;20042;-93
2023/12/07 08:10:30;;;;;;;1.10;0.45;;;15.00;64.90;;;;;;4968040;28;20039;-93
2023/12/07 08:12:55;;;;;;;0.52;0.52;;;15.10;65.20;;;;;;4968720;28;20536;-93
2023/12/07 08:15:21;;;;;;;0.65;0.50;;;15.10;65.20;;;;;;4962271;28;20083;-92
2023/12/07 08:17:47;;;;;;;0.50;0.50;;;15.00;65.30;;;;;;4967488;28;20058;-93
2023/12/07 08:20:14;;;;;;;0.50;0.50;;;15.00;65.20;;;;;;4968207;28;20046;-93
2023/12/07 08:22:43;;;;;;;0.70;0.70;;;15.00;65.30;;;;;;4968910;28;20544;-93
2023/12/07 08:25:09;;;;;;;0.60;0.50;;;15.00;65.40;;;;;;4965630;28;20039;-93
2023/12/07 08:27:36;;;;;;;1.15;0.70;;;15.00;65.40;;;;;;4970275;28;20513;-93
2023/12/07 08:30:02;;;;;;;0.82;0.73;;;15.00;65.50;;;;;;4967719;28;20287;-93
2023/12/07 08:32:29;;;;;;;2.05;0.50;;;15.00;65.50;;;;;;4966814;28;20945;-93
2023/12/07 08:34:54;;;;;;;1.30;0.85;;;15.00;65.60;;;;;;4967492;28;20035;-93
2023/12/07 08:37:20;;;;;;;1.95;0.52;;;15.00;65.50;;;;;;4968445;28;20105;-93
2023/12/07 08:39:45;;;;;;;1.65;0.50;;;15.00;65.60;;;;;;4970359;28;20569;-93
2023/12/07 08:42:11;;;;;;;0.45;0.40;;;15.00;65.60;;;;;;4970413;28;20058;-93
2023/12/07 08:44:37;;;;;;;0.50;0.50;;;15.00;65.60;;;;;;4972747;28;20039;-92
2023/12/07 08:47:03;;;;;;;0.70;0.70;;;15.00;65.60;;;;;;4971251;28;20046;-93
2023/12/07 08:49:28;;;;;;;0.60;0.43;;;15.00;65.60;;;;;;4970936;28;20086;-92
2023/12/07 08:51:54;;;;;;;1.42;0.55;;;15.00;66.10;;;;;;4975744;28;20078;-92
2023/12/07 08:54:19;;;;;;;1.02;0.57;;;15.00;65.70;;;;;;4972445;28;20544;-92
2023/12/07 08:56:45;;;;;;;0.40;0.40;;;15.00;65.60;;;;;;4974987;28;20047;-93
2023/12/07 08:59:11;;;;;;;0.50;0.50;;;15.00;65.60;;;;;;4971953;28;20039;-93
2023/12/07 09:01:36;;;;;;;0.60;0.60;;;15.00;65.60;;;;;;4979462;28;21291;-92
2023/12/07 09:04:05;;;;;;;1.48;0.60;;;15.00;65.60;;;;;;4971271;28;20510;-92
2023/12/07 09:06:31;;;;;;;0.40;0.40;;;15.00;65.70;;;;;;4969937;28;20129;-92
2023/12/07 09:08:56;;;;;;;0.35;0.35;;;15.00;65.60;;;;;;4969806;28;20632;-92
2023/12/07 09:11:22;;;;;;;0.40;0.40;;;15.00;65.60;;;;;;4974655;28;20053;-92
2023/12/07 09:13:48;;;;;;;1.05;0.50;;;15.00;65.80;;;;;;4974791;28;20547;-92
2023/12/07 09:16:14;;;;;;;1.55;0.60;;;15.00;65.90;;;;;;4975277;28;20043;-93
2023/12/07 09:18:41;;;;;;;0.55;0.55;;;15.00;65.60;;;;;;4973683;28;20042;-92
2023/12/07 09:21:07;;;;;;;0.38;0.38;;;15.00;65.60;;;;;;4970364;28;20066;-92
2023/12/07 09:23:33;;;;;;;0.40;0.40;;;15.00;65.70;;;;;;4973291;28;20131;-93
2023/12/07 09:25:58;;;;;;;0.55;0.55;;;15.00;65.60;;;;;;4970073;28;20121;-93
2023/12/07 09:28:24;;;;;;;0.32;0.32;;;15.00;65.60;;;;;;4964012;28;20082;-92
2023/12/07 09:30:49;;;;;;;0.50;0.50;;;14.90;65.60;;;;;;4972430;28;20520;-92
2023/12/07 09:33:15;;;;;;;0.60;0.50;;;14.90;65.70;;;;;;4968804;28;20098;-93
2023/12/07 09:35:41;;;;;;;0.50;0.50;;;15.00;65.70;;;;;;4970125;28;20556;-93
2023/12/07 09:38:07;;;;;;;0.52;0.50;;;14.90;65.60;;;;;;4969166;28;20042;-93
2023/12/07 09:40:32;;;;;;;0.45;0.40;;;14.90;65.70;;;;;;4968927;28;20050;-93
2023/12/07 09:42:58;;;;;;;0.30;0.30;;;15.00;65.60;;;;;;4966066;28;20042;-93
2023/12/07 09:45:23;;;;;;;0.52;0.50;;;14.90;65.60;;;;;;4967412;28;20062;-92
2023/12/07 09:47:53;;;;;;;0.43;0.43;;;14.90;65.60;;;;;;4971205;28;20063;-93
2023/12/07 09:50:25;;;;;;;0.52;0.52;;;15.00;65.70;;;;;;4973658;28;20049;-93
2023/12/07 09:52:52;;;;;;;0.55;0.50;;;14.90;65.60;;;;;;4965997;28;20046;-93
2023/12/07 09:55:18;;;;;;;0.52;0.40;;;14.90;65.70;;;;;;4968180;28;20105;-93
2023/12/07 09:57:43;;;;;;;0.68;0.40;;;14.90;65.70;;;;;;4972536;28;20043;-93
2023/12/07 10:00:13;;;;;;;0.52;0.50;;;14.90;65.70;;;;;;4970743;28;20042;-93
2023/12/07 10:02:41;;;;;;;0.40;0.40;;;14.90;65.50;;;;;;4971111;28;20043;-93
2023/12/07 10:05:07;;;;;;;1.50;0.40;;;14.90;65.50;;;;;;4972822;28;20106;-93
2023/12/07 10:07:37;;;;;;;0.50;0.50;;;15.00;65.50;;;;;;4971933;28;20078;-93
2023/12/07 10:10:03;;;;;;;0.70;0.70;;;14.90;65.60;;;;;;4974181;28;20046;-93
2023/12/07 10:12:30;;;;;;;0.40;0.40;;;14.90;65.40;;;;;;4952888;28;20077;-93
2023/12/07 10:14:55;;;;;;;1.38;0.50;;;14.90;65.50;;;;;;4965571;28;20074;-93
2023/12/07 10:17:21;;;;;;;0.47;0.38;;;14.90;65.50;;;;;;4973943;28;20039;-94
2023/12/07 10:19:49;;;;;;;0.57;0.50;;;14.90;65.40;;;;;;4973692;28;20536;-93
2023/12/07 10:22:15;;;;;;;0.73;0.50;;;14.90;65.60;;;;;;4970901;28;20059;-93
2023/12/07 10:24:41;;;;;;;0.38;0.38;;;14.90;66.30;;;;;;4970344;28;20034;-93
2023/12/07 10:27:07;;;;;;;0.63;0.30;;;14.90;65.50;;;;;;4969040;28;20505;-93
2023/12/07 10:29:35;;;;;;;0.43;0.40;;;14.90;65.40;;;;;;4950124;28;20433;-93
2023/12/07 10:32:04;;;;;;;0.32;0.32;;;14.90;65.30;;;;;;4969269;28;20071;-93
2023/12/07 10:34:31;;;;;;;0.30;0.30;;;14.90;65.50;;;;;;4967930;28;20051;-93
2023/12/07 10:36:57;;;;;;;0.30;0.30;;;14.90;65.30;;;;;;4970737;28;20042;-93
2023/12/07 10:39:26;;;;;;;0.45;0.45;;;14.90;66.10;;;;;;4970775;28;20049;-87
2023/12/07 10:41:52;;;;;;;0.40;0.40;;;14.90;65.30;;;;;;4969650;28;20050;-93
2023/12/07 10:44:18;;;;;;;0.40;0.40;;;14.90;65.30;;;;;;4971330;28;20122;-93
2023/12/07 10:46:43;;;;;;;0.52;0.52;;;14.90;65.30;;;;;;4954546;28;20050;-93
2023/12/07 10:49:13;;;;;;;0.50;0.50;;;14.90;65.30;;;;;;4971347;28;20050;-93
2023/12/07 10:51:45;;;;;;;0.28;0.28;;;14.90;65.30;;;;;;4966614;28;20057;-94
2023/12/07 10:54:12;;;;;;;0.60;0.57;;;14.90;65.10;;;;;;4983867;28;20047;-93
2023/12/07 10:56:44;;;;;;;0.40;0.40;;;14.90;65.30;;;;;;4969443;28;20049;-93
2023/12/07 10:59:11;;;;;;;0.28;0.28;;;14.90;65.30;;;;;;4971110;28;20049;-93
2023/12/07 11:01:40;;;;;;;0.38;0.38;;;14.90;65.20;;;;;;4970826;28;20062;-93
2023/12/07 11:04:06;;;;;;;0.50;0.50;;;14.90;65.20;;;;;;4971529;28;20133;-93
2023/12/07 11:06:32;;;;;;;0.40;0.40;;;14.90;65.30;;;;;;4969243;28;20103;-92
2023/12/07 11:08:59;;;;;;;1.02;0.60;;;14.90;65.30;;;;;;4947126;28;20480;-93
2023/12/07 11:11:27;;;;;;;2.00;0.60;;;14.80;64.80;;;;;;4969595;28;20501;-83
2023/12/07 11:13:57;;;;;;;0.45;0.45;;;14.80;65.10;;;;;;4969627;28;20390;-93
2023/12/07 11:16:34;;;;;;;0.38;0.38;;;14.80;65.30;;;;;;4970535;28;20050;-93
2023/12/07 11:19:00;;;;;;;1.58;0.68;;;14.80;65.20;;;;;;4971387;28;20049;-93
2023/12/07 11:21:25;;;;;;;0.30;0.30;;;14.80;65.20;;;;;;4966591;28;20129;-81
2023/12/07 11:23:53;;;;;;;0.25;0.25;;;14.80;65.20;;;;;;4968975;28;20043;-93
2023/12/07 11:26:20;;;;;;;0.30;0.30;;;14.90;65.20;;;;;;4968835;28;20058;-93
2023/12/07 11:28:46;;;;;;;0.30;0.30;;;14.90;65.20;;;;;;4968980;28;20054;-93
2023/12/07 11:31:11;;;;;;;0.30;0.30;;;14.90;65.30;;;;;;4970879;28;20475;-94
2023/12/07 11:33:40;;;;;;;0.40;0.40;;;14.90;65.20;;;;;;4969055;28;20093;-93
2023/12/07 11:36:10;;;;;;;0.52;0.40;;;14.90;65.40;;;;;;4946478;28;20045;-93
2023/12/07 11:38:38;;;;;;;0.30;0.30;;;14.90;65.40;;;;;;4969568;28;20130;-94
2023/12/07 11:41:04;;;;;;;0.45;0.40;;;14.90;65.40;;;;;;4969943;28;20417;-94
2023/12/07 11:43:33;;;;;;;0.35;0.35;;;14.80;65.10;;;;;;4970482;28;20043;-93
2023/12/07 11:45:59;;;;;;;1.40;0.40;;;14.90;65.20;;;;;;4967272;28;20109;-90
2023/12/07 11:48:24;;;;;;;0.40;0.30;;;14.90;65.30;;;;;;4969903;28;20413;-88
2023/12/07 11:50:56;;;;;;;0.50;0.50;;;14.90;65.30;;;;;;4968638;28;20074;-89
2023/12/07 11:53:23;;;;;;;0.40;0.38;;;14.90;65.30;;;;;;4965411;28;20042;-89
2023/12/07 11:55:49;;;;;;;0.45;0.45;;;14.90;65.40;;;;;;4968990;28;20386;-91
2023/12/07 11:58:15;;;;;;;0.45;0.45;;;14.90;65.30;;;;;;4969456;28;20085;-91
2023/12/07 12:00:40;;;;;;;1.33;0.30;;;14.90;65.50;;;;;;4966098;28;20509;-90
2023/12/07 12:03:06;;;;;;;0.40;0.40;;;15.00;65.50;;;;;;4966179;28;20532;-90
2023/12/07 12:05:32;;;;;;;0.30;0.30;;;15.00;65.50;;;;;;4969608;28;20046;-90
2023/12/07 12:07:57;;;;;;;0.50;0.45;;;15.00;65.40;;;;;;4968389;28;20421;-89
2023/12/07 12:10:25;;;;;;;0.30;0.30;;;15.00;65.50;;;;;;4969872;28;20368;-89
2023/12/07 12:12:51;;;;;;;0.57;0.50;;;15.00;65.80;;;;;;4967323;28;20043;-89
2023/12/07 12:15:16;;;;;;;0.40;0.40;;;15.00;65.90;;;;;;4966724;28;20431;-88
2023/12/07 12:17:42;;;;;;;0.70;0.70;;;15.00;65.50;;;;;;4966005;28;20046;-89
2023/12/07 12:20:10;;;;;;;0.57;0.57;;;15.00;65.70;;;;;;4968010;28;20031;-89
2023/12/07 12:22:36;;;;;;;0.65;0.50;;;15.00;65.70;;;;;;4966308;28;20049;-89
2023/12/07 12:25:03;;;;;;;1.88;0.60;;;15.00;65.70;;;;;;4968073;28;20038;-89
2023/12/07 12:27:28;;;;;;;0.30;0.30;;;15.00;65.60;;;;;;4966353;28;20106;-88
2023/12/07 12:29:54;;;;;;;1.75;0.43;;;15.00;65.60;;;;;;4946934;28;20051;-89
2023/12/07 12:32:22;;;;;;;0.50;0.50;;;15.00;65.50;;;;;;4967057;28;20062;-88
2023/12/07 12:34:51;;;;;;;0.40;0.40;;;15.00;65.50;;;;;;4961922;28;20038;-89
2023/12/07 12:37:16;;;;;;;0.50;0.50;;;15.00;65.50;;;;;;4966752;28;20108;-88
2023/12/07 12:39:42;;;;;;;0.50;0.40;;;15.00;65.60;;;;;;4967348;28;20106;-88